Time;durP1;ratioP1;P1;durP2;ratioP2;P2;SDS_P1;SDS_P2;PMS_P1;PMS_P2;Temp;Humidity;BMP_temperature;BMP_pressure;BME280_temperature;BME280_humidity;BME280_pressure;Samples;Min_cycle;Max_cycle;Signal;HPM_P1;HPM_P2
2022/09/23 00:01:48;;;;;;;11.93;6.05;;;;;;;-145.01;100.00;64805.59;5050786;28;20138;-55
2022/09/23 00:04:14;;;;;;;9.98;5.35;;;;;;;-145.01;100.00;64805.59;5055486;28;20079;-53
2022/09/23 00:06:40;;;;;;;7.50;5.38;;;;;;;-145.01;100.00;64805.59;5058135;28;20259;-56
2022/09/23 00:09:05;;;;;;;8.73;5.20;;;;;;;-145.01;100.00;64805.59;5055234;28;20455;-54
2022/09/23 00:11:31;;;;;;;8.57;5.40;;;;;;;-145.01;100.00;64805.59;5043717;28;20036;-58
2022/09/23 00:13:57;;;;;;;10.68;5.25;;;;;;;-145.01;100.00;64805.59;5055003;28;20463;-53
2022/09/23 00:16:33;;;;;;;7.82;5.45;;;;;;;-145.01;100.00;64805.59;5049988;28;20243;-55
2022/09/23 00:18:59;;;;;;;9.60;5.32;;;;;;;-145.01;100.00;64805.59;5087325;28;20039;-55
2022/09/23 00:21:25;;;;;;;10.60;5.93;;;;;;;-145.01;100.00;64805.59;5055376;28;20121;-54
2022/09/23 00:23:50;;;;;;;16.52;7.00;;;;;;;-145.01;100.00;64805.59;5050104;28;20460;-55
2022/09/23 00:26:17;;;;;;;11.88;6.07;;;;;;;-145.01;100.00;64805.59;5054463;28;20503;-55
2022/09/23 00:28:43;;;;;;;15.10;6.75;;;;;;;-145.01;100.00;64805.59;5051071;28;20017;-54
2022/09/23 00:31:13;;;;;;;9.80;6.40;;;;;;;-145.01;100.00;64805.59;5051178;28;20028;-54
2022/09/23 00:33:39;;;;;;;12.07;5.60;;;;;;;-145.01;100.00;64805.59;5050411;28;20027;-54
2022/09/23 00:36:06;;;;;;;10.57;5.43;;;;;;;-145.01;100.00;64805.59;5066518;28;20032;-56
2022/09/23 00:38:32;;;;;;;9.05;5.50;;;;;;;-145.01;100.00;64805.59;5054241;28;20029;-56
2022/09/23 00:40:58;;;;;;;11.55;5.50;;;;;;;-145.01;100.00;64805.59;5057290;28;20072;-55
2022/09/23 00:43:46;;;;;;;9.13;5.78;;;;;;;-145.01;100.00;64805.59;5051010;28;20523;-55
2022/09/23 00:46:36;;;;;;;10.27;4.97;;;;;;;-145.01;100.00;64805.59;5051163;28;20108;-55
2022/09/23 00:49:29;;;;;;;9.38;5.50;;;;;;;-145.01;100.00;64805.59;5047166;28;20041;-54
2022/09/23 00:52:01;;;;;;;9.88;5.47;;;;;;;-145.01;100.00;64805.59;5050894;28;20210;-54
2022/09/23 00:54:26;;;;;;;8.73;5.75;;;;;;;-145.01;100.00;64805.59;5039251;28;20486;-54
2022/09/23 00:56:52;;;;;;;7.93;5.50;;;;;;;-145.01;100.00;64805.59;5063892;28;20036;-54
2022/09/23 00:59:18;;;;;;;10.60;5.10;;;;;;;-145.01;100.00;64805.59;5067150;28;20074;-53
2022/09/23 01:01:43;;;;;;;8.27;5.22;;;;;;;-145.01;100.00;64805.59;5035897;28;20387;-54
2022/09/23 01:04:09;;;;;;;8.20;5.10;;;;;;;-145.01;100.00;64805.59;5053022;28;20848;-54
2022/09/23 01:06:34;;;;;;;8.15;5.10;;;;;;;-145.01;100.00;64805.59;5049986;28;20538;-53
2022/09/23 01:09:00;;;;;;;8.15;4.72;;;;;;;-145.01;100.00;64805.59;5054291;28;20026;-54
2022/09/23 01:11:34;;;;;;;11.38;5.28;;;;;;;-145.01;100.00;64805.59;5050386;28;20383;-53
2022/09/23 01:14:08;;;;;;;10.60;5.60;;;;;;;-145.01;100.00;64805.59;5052140;28;20035;-55
2022/09/23 01:16:38;;;;;;;8.23;4.65;;;;;;;-145.01;100.00;64805.59;5050115;28;20435;-54
2022/09/23 01:19:25;;;;;;;7.22;5.20;;;;;;;-145.01;100.00;64805.59;5054119;28;20048;-54
2022/09/23 01:22:00;;;;;;;12.93;5.05;;;;;;;-145.01;100.00;64805.59;5049879;28;20041;-55
2022/09/23 01:24:25;;;;;;;7.55;4.95;;;;;;;-145.01;100.00;64805.59;5049338;28;20040;-54
2022/09/23 01:27:01;;;;;;;10.45;5.57;;;;;;;-145.01;100.00;64805.59;5054679;28;20028;-55
2022/09/23 01:29:32;;;;;;;8.48;5.50;;;;;;;-145.01;100.00;64805.59;5052337;28;20056;-54
2022/09/23 01:32:27;;;;;;;11.25;5.90;;;;;;;-145.01;100.00;64805.59;5054693;28;20056;-56
2022/09/23 01:35:18;;;;;;;13.52;6.05;;;;;;;-145.01;100.00;64805.59;5060606;28;20028;-56
2022/09/23 01:38:10;;;;;;;9.57;5.28;;;;;;;-145.01;100.00;64805.59;5034697;28;20123;-54
2022/09/23 01:40:44;;;;;;;10.15;6.25;;;;;;;-145.01;100.00;64805.59;5068656;28;20058;-55
2022/09/23 01:43:47;;;;;;;9.77;5.63;;;;;;;-145.01;100.00;64805.59;5048553;28;20033;-54
2022/09/23 01:46:17;;;;;;;13.48;6.45;;;;;;;-145.01;100.00;64805.59;5025122;28;20033;-55
2022/09/23 01:49:12;;;;;;;12.88;6.93;;;;;;;-145.01;100.00;64805.59;5032675;28;20036;-52
2022/09/23 01:51:44;;;;;;;16.02;6.70;;;;;;;-145.01;100.00;64805.59;5045736;28;20154;-53
2022/09/23 01:54:37;;;;;;;12.00;6.65;;;;;;;-145.01;100.00;64805.59;5054601;28;20330;-54
2022/09/23 01:57:10;;;;;;;10.18;6.10;;;;;;;-145.01;100.00;64805.59;5052687;28;20414;-54
2022/09/23 01:59:47;;;;;;;11.10;6.32;;;;;;;-145.01;100.00;64805.59;5051522;28;20043;-54
2022/09/23 02:02:31;;;;;;;9.77;5.97;;;;;;;-145.01;100.00;64805.59;5047828;28;20029;-54
2022/09/23 02:05:31;;;;;;;12.15;6.65;;;;;;;-145.01;100.00;64805.59;5044365;28;20056;-54
2022/09/23 02:08:13;;;;;;;9.13;5.32;;;;;;;-145.01;100.00;64805.59;5010032;28;20036;-55
2022/09/23 02:10:43;;;;;;;12.38;6.82;;;;;;;-145.01;100.00;64805.59;5051030;28;20551;-52
2022/09/23 02:13:14;;;;;;;11.10;6.60;;;;;;;-145.01;100.00;64805.59;5053994;28;20547;-55
2022/09/23 02:15:43;;;;;;;16.55;7.00;;;;;;;-145.01;100.00;64805.59;5057721;28;20115;-54
2022/09/23 02:18:13;;;;;;;11.57;6.30;;;;;;;-145.01;100.00;64805.59;5031452;28;20021;-55
2022/09/23 02:20:38;;;;;;;12.43;6.80;;;;;;;-145.01;100.00;64805.59;5033789;28;20658;-54
2022/09/23 02:23:11;;;;;;;12.60;7.45;;;;;;;-145.01;100.00;64805.59;5053120;28;20017;-54
2022/09/23 02:25:49;;;;;;;12.23;6.38;;;;;;;-145.01;100.00;64805.59;5051372;28;20530;-53
2022/09/23 02:28:24;;;;;;;9.68;6.40;;;;;;;-145.01;100.00;64805.59;5049027;28;20033;-55
2022/09/23 02:30:53;;;;;;;12.00;7.43;;;;;;;-145.01;100.00;64805.59;5056768;28;20025;-53
2022/09/23 02:33:23;;;;;;;15.40;7.40;;;;;;;-145.01;100.00;64805.59;5055501;28;20036;-52
2022/09/23 02:35:56;;;;;;;11.80;7.20;;;;;;;-145.01;100.00;64805.59;5051235;28;20046;-53
2022/09/23 02:38:36;;;;;;;13.23;7.05;;;;;;;-145.01;100.00;64805.59;5052567;28;20113;-54
2022/09/23 02:41:25;;;;;;;15.40;8.30;;;;;;;-145.01;100.00;64805.59;5051761;28;20029;-53
2022/09/23 02:44:05;;;;;;;11.70;7.90;;;;;;;-145.01;100.00;64805.59;5054068;28;20036;-53
2022/09/23 02:46:30;;;;;;;14.25;8.40;;;;;;;-145.01;100.00;64805.59;5035762;28;20021;-54
2022/09/23 02:48:59;;;;;;;13.80;7.97;;;;;;;-145.01;100.00;64805.59;5048929;28;20017;-53
2022/09/23 02:51:25;;;;;;;12.68;7.97;;;;;;;-145.01;100.00;64805.59;5040873;28;20033;-55
2022/09/23 02:53:51;;;;;;;14.18;7.88;;;;;;;-145.01;100.00;64805.59;5047491;28;20029;-55
2022/09/23 02:56:19;;;;;;;13.27;8.05;;;;;;;-145.01;100.00;64805.59;5067713;28;20061;-54
2022/09/23 02:58:48;;;;;;;11.20;6.95;;;;;;;-145.01;100.00;64805.59;5048553;28;20036;-52
2022/09/23 03:01:23;;;;;;;10.85;6.63;;;;;;;-145.01;100.00;64805.59;5052287;28;20036;-51
2022/09/23 03:04:03;;;;;;;13.65;7.55;;;;;;;-145.01;100.00;64805.59;5064469;28;20389;-54
2022/09/23 03:06:32;;;;;;;11.48;7.07;;;;;;;-145.01;100.00;64805.59;5063860;28;20033;-54
2022/09/23 03:09:07;;;;;;;12.68;7.07;;;;;;;-145.01;100.00;64805.59;5052753;28;20108;-54
2022/09/23 03:11:34;;;;;;;16.10;7.22;;;;;;;-145.01;100.00;64805.59;5048865;28;20029;-53
2022/09/23 03:14:50;;;;;;;10.90;6.97;;;;;;;-145.01;100.00;64805.59;5031497;28;20033;-54
2022/09/23 03:17:33;;;;;;;11.77;7.72;;;;;;;-145.01;100.00;64805.59;5035504;28;20043;-54
2022/09/23 03:20:00;;;;;;;19.27;7.70;;;;;;;-145.01;100.00;64805.59;5048815;28;20033;-52
2022/09/23 03:22:51;;;;;;;15.15;7.13;;;;;;;-145.01;100.00;64805.59;5055490;28;20040;-55
2022/09/23 03:25:18;;;;;;;12.13;6.97;;;;;;;-145.01;100.00;64805.59;5047818;28;20055;-53
2022/09/23 03:27:44;;;;;;;11.13;6.88;;;;;;;-145.01;100.00;64805.59;5048770;28;20033;-54
2022/09/23 03:30:10;;;;;;;13.18;7.38;;;;;;;-145.01;100.00;64805.59;5048150;28;20040;-53
2022/09/23 03:32:36;;;;;;;17.90;8.00;;;;;;;-145.01;100.00;64805.59;5067808;28;20457;-54
2022/09/23 03:35:02;;;;;;;11.48;7.30;;;;;;;-145.01;100.00;64805.59;5047649;28;20025;-55
2022/09/23 03:37:33;;;;;;;15.30;7.75;;;;;;;-145.01;100.00;64805.59;5037366;28;20020;-55
2022/09/23 03:40:02;;;;;;;16.02;8.10;;;;;;;-145.01;100.00;64805.59;5036887;28;20047;-54
2022/09/23 03:42:30;;;;;;;18.67;8.70;;;;;;;-145.01;100.00;64805.59;5062785;28;20040;-54
2022/09/23 03:44:56;;;;;;;16.50;9.00;;;;;;;-145.01;100.00;64805.59;5047098;28;20040;-53
2022/09/23 03:47:23;;;;;;;11.57;8.13;;;;;;;-145.01;100.00;64805.59;5058429;28;20487;-54
2022/09/23 03:49:49;;;;;;;14.70;9.80;;;;;;;-145.01;100.00;64805.59;5052329;28;20025;-54
2022/09/23 03:52:15;;;;;;;20.45;8.75;;;;;;;-145.01;100.00;64805.59;5060156;28;20442;-53
2022/09/23 03:54:40;;;;;;;15.98;8.38;;;;;;;-145.01;100.00;64805.59;5055213;28;20074;-52
2022/09/23 03:57:06;;;;;;;12.07;7.63;;;;;;;-145.01;100.00;64805.59;5054579;28;20427;-53
2022/09/23 03:59:31;;;;;;;12.38;8.10;;;;;;;-145.01;100.00;64805.59;5054664;28;20384;-53
2022/09/23 04:01:58;;;;;;;18.38;7.82;;;;;;;-145.01;100.00;64805.59;5051388;28;20063;-54
2022/09/23 04:04:25;;;;;;;12.48;7.32;;;;;;;-145.01;100.00;64805.59;5055576;28;20068;-54
2022/09/23 04:06:50;;;;;;;16.55;8.07;;;;;;;-145.01;100.00;64805.59;5052297;28;20029;-59
2022/09/23 04:09:16;;;;;;;11.85;7.55;;;;;;;-145.01;100.00;64805.59;5056393;28;20435;-54
2022/09/23 04:11:41;;;;;;;13.50;7.45;;;;;;;-145.01;100.00;64805.59;5056882;28;20274;-55
2022/09/23 04:14:07;;;;;;;14.85;7.78;;;;;;;-145.01;100.00;64805.59;5058015;28;20532;-56
2022/09/23 04:16:32;;;;;;;12.88;7.68;;;;;;;-145.01;100.00;64805.59;5057693;28;20040;-54
2022/09/23 04:18:58;;;;;;;17.33;8.60;;;;;;;-145.01;100.00;64805.59;5057212;28;20025;-53
2022/09/23 04:21:23;;;;;;;15.05;8.75;;;;;;;-145.01;100.00;64805.59;5058548;28;20079;-55
2022/09/23 04:23:49;;;;;;;17.05;8.30;;;;;;;-145.01;100.00;64805.59;5058271;28;20475;-54
2022/09/23 04:26:14;;;;;;;13.30;9.18;;;;;;;-145.01;100.00;64805.59;5059269;28;20036;-54
2022/09/23 04:28:40;;;;;;;17.30;8.98;;;;;;;-145.01;100.00;64805.59;5055726;28;20025;-54
2022/09/23 04:31:06;;;;;;;12.38;8.23;;;;;;;-145.01;100.00;64805.59;5050648;28;20033;-55
2022/09/23 04:33:31;;;;;;;17.25;8.73;;;;;;;-145.01;100.00;64805.59;5055181;28;20095;-56
2022/09/23 04:35:57;;;;;;;14.70;9.05;;;;;;;-145.01;100.00;64805.59;5051838;28;20028;-55
2022/09/23 04:38:22;;;;;;;17.13;8.65;;;;;;;-145.01;100.00;64805.59;5058335;28;20424;-53
2022/09/23 04:40:48;;;;;;;15.40;8.98;;;;;;;-145.01;100.00;64805.59;5054382;28;20029;-52
2022/09/23 04:43:15;;;;;;;13.40;9.57;;;;;;;-145.01;100.00;64805.59;5049849;28;20037;-54
2022/09/23 04:45:41;;;;;;;18.08;9.02;;;;;;;-145.01;100.00;64805.59;5053806;28;20386;-54
2022/09/23 04:48:08;;;;;;;14.60;8.90;;;;;;;-145.01;100.00;64805.59;5054843;28;20045;-52
2022/09/23 04:50:33;;;;;;;17.25;9.60;;;;;;;-145.01;100.00;64805.59;5051416;28;20111;-53
2022/09/23 04:52:59;;;;;;;16.73;9.02;;;;;;;-145.01;100.00;64805.59;5051131;28;20514;-54
2022/09/23 04:55:24;;;;;;;16.70;9.23;;;;;;;-145.01;100.00;64805.59;5036918;28;20154;-55
2022/09/23 04:57:50;;;;;;;17.95;8.35;;;;;;;-145.01;100.00;64805.59;5051423;28;20028;-54
2022/09/23 05:00:15;;;;;;;14.50;8.27;;;;;;;-145.01;100.00;64805.59;5050504;28;20029;-57
2022/09/23 05:02:43;;;;;;;15.07;8.73;;;;;;;-145.01;100.00;64805.59;5057915;28;20170;-54
2022/09/23 05:05:08;;;;;;;14.45;7.72;;;;;;;-145.01;100.00;64805.59;5057112;28;20033;-54
2022/09/23 05:07:34;;;;;;;17.50;7.97;;;;;;;-145.01;100.00;64805.59;5061353;28;20031;-54
2022/09/23 05:10:00;;;;;;;16.95;8.18;;;;;;;-145.01;100.00;64805.59;5055899;28;20533;-53
2022/09/23 05:12:25;;;;;;;15.13;7.68;;;;;;;-145.01;100.00;64805.59;5056369;28;20036;-51
2022/09/23 05:14:50;;;;;;;14.05;8.00;;;;;;;-145.01;100.00;64805.59;5056617;28;20029;-52
2022/09/23 05:17:16;;;;;;;20.92;8.77;;;;;;;-145.01;100.00;64805.59;5055840;28;20025;-53
2022/09/23 05:19:41;;;;;;;11.45;7.75;;;;;;;-145.01;100.00;64805.59;5057896;28;20017;-54
2022/09/23 05:22:07;;;;;;;16.73;10.07;;;;;;;-145.01;100.00;64805.59;5061675;28;20033;-53
2022/09/23 05:24:32;;;;;;;23.67;13.27;;;;;;;-145.01;100.00;64805.59;5056733;28;20040;-52
2022/09/23 05:26:58;;;;;;;24.83;12.55;;;;;;;-145.01;100.00;64805.59;5053510;28;20020;-53
2022/09/23 05:29:23;;;;;;;22.50;10.38;;;;;;;-145.01;100.00;64805.59;5063986;28;20028;-55
2022/09/23 05:31:48;;;;;;;18.08;11.43;;;;;;;-145.01;100.00;64805.59;5060816;28;20020;-53
2022/09/23 05:34:14;;;;;;;22.45;11.00;;;;;;;-145.01;100.00;64805.59;5060769;28;20470;-53
2022/09/23 05:36:39;;;;;;;15.23;8.80;;;;;;;-145.01;100.00;64805.59;5086818;28;20029;-51
2022/09/23 05:39:05;;;;;;;13.88;8.23;;;;;;;-145.01;100.00;64805.59;5051384;28;20033;-52
2022/09/23 05:41:32;;;;;;;11.90;7.78;;;;;;;-145.01;100.00;64805.59;5052232;28;20064;-54
2022/09/23 05:43:58;;;;;;;20.38;9.98;;;;;;;-145.01;100.00;64805.59;5051527;28;20020;-55
2022/09/23 05:46:28;;;;;;;17.38;11.27;;;;;;;-145.01;100.00;64805.59;5055514;28;20021;-54
2022/09/23 05:48:54;;;;;;;21.00;13.07;;;;;;;-145.01;100.00;64805.59;5054771;28;20480;-55
2022/09/23 05:51:21;;;;;;;17.30;11.80;;;;;;;-145.01;100.00;64805.59;5056099;28;20029;-54
2022/09/23 05:53:47;;;;;;;18.92;12.05;;;;;;;-145.01;100.00;64805.59;5049823;28;20037;-52
2022/09/23 05:56:16;;;;;;;17.98;10.88;;;;;;;-145.01;100.00;64805.59;5055523;28;20041;-54
2022/09/23 05:58:42;;;;;;;14.48;8.63;;;;;;;-145.01;100.00;64805.59;5050160;28;20028;-53
2022/09/23 06:01:11;;;;;;;14.75;8.23;;;;;;;-145.01;100.00;64805.59;5049201;28;20024;-56
2022/09/23 06:03:37;;;;;;;19.00;9.32;;;;;;;-145.01;100.00;64805.59;5049946;28;20028;-56
2022/09/23 06:06:02;;;;;;;16.60;11.02;;;;;;;-145.01;100.00;64805.59;5055787;28;20040;-54
2022/09/23 06:08:28;;;;;;;21.08;13.27;;;;;;;-145.01;100.00;64805.59;5057840;28;20037;-54
2022/09/23 06:10:53;;;;;;;18.98;11.15;;;;;;;-145.01;100.00;64805.59;5057596;28;20120;-54
2022/09/23 06:13:19;;;;;;;27.52;15.38;;;;;;;-145.01;100.00;64805.59;5057077;28;20025;-55
2022/09/23 06:15:44;;;;;;;25.08;13.95;;;;;;;-145.01;100.00;64805.59;5056547;28;20024;-55
2022/09/23 06:18:10;;;;;;;21.48;10.15;;;;;;;-145.01;100.00;64805.59;5051279;28;20033;-55
2022/09/23 06:20:36;;;;;;;15.13;9.50;;;;;;;-145.01;100.00;64805.59;5057300;28;20029;-56
2022/09/23 06:23:05;;;;;;;14.15;8.68;;;;;;;-145.01;100.00;64805.59;5052132;28;20029;-55
2022/09/23 06:25:34;;;;;;;13.55;8.82;;;;;;;-145.01;100.00;64805.59;5060456;28;20025;-56
2022/09/23 06:28:00;;;;;;;15.60;8.05;;;;;;;-145.01;100.00;64805.59;5056366;28;20029;-55
2022/09/23 06:30:25;;;;;;;16.02;8.45;;;;;;;-145.01;100.00;64805.59;5058684;28;20044;-54
2022/09/23 06:32:52;;;;;;;13.65;8.13;;;;;;;-145.01;100.00;64805.59;5050470;28;20048;-55
2022/09/23 06:35:21;;;;;;;13.52;7.50;;;;;;;-145.01;100.00;64805.59;5051324;28;20478;-55
2022/09/23 06:37:47;;;;;;;16.63;7.25;;;;;;;-145.01;100.00;64805.59;5054888;28;20098;-54
2022/09/23 06:40:13;;;;;;;12.65;6.78;;;;;;;-145.01;100.00;64805.59;5054668;28;20032;-56
2022/09/23 06:42:39;;;;;;;15.20;7.22;;;;;;;-145.01;100.00;64805.59;5053539;28;20130;-55
2022/09/23 06:45:05;;;;;;;14.10;7.47;;;;;;;-145.01;100.00;64805.59;5056122;28;20491;-55
2022/09/23 06:47:30;;;;;;;11.65;7.35;;;;;;;-145.01;100.00;64805.59;5049019;28;20029;-53
2022/09/23 06:49:56;;;;;;;15.10;9.00;;;;;;;-145.01;100.00;64805.59;5048763;28;20030;-55
2022/09/23 06:52:21;;;;;;;17.48;9.98;;;;;;;-145.01;100.00;64805.59;5053465;28;20032;-55
2022/09/23 06:54:47;;;;;;;13.32;8.15;;;;;;;-145.01;100.00;64805.59;5048938;28;20313;-54
2022/09/23 06:57:13;;;;;;;12.60;7.20;;;;;;;-145.01;100.00;64805.59;5059674;28;20035;-56
2022/09/23 06:59:38;;;;;;;21.05;7.75;;;;;;;-145.01;100.00;64805.59;5050892;28;20520;-55
2022/09/23 07:02:04;;;;;;;11.18;7.07;;;;;;;-145.01;100.00;64805.59;5051159;28;20032;-55
2022/09/23 07:04:29;;;;;;;12.70;6.30;;;;;;;-145.01;100.00;64805.59;5048749;28;20579;-55
2022/09/23 07:06:55;;;;;;;9.27;7.18;;;;;;;-145.01;100.00;64805.59;5056293;28;20324;-55
2022/09/23 07:09:20;;;;;;;11.80;7.65;;;;;;;-145.01;100.00;64805.59;5056491;28;20032;-54
2022/09/23 07:11:46;;;;;;;10.13;6.95;;;;;;;-145.01;100.00;64805.59;5049586;28;20033;-54
2022/09/23 07:14:12;;;;;;;10.23;6.72;;;;;;;-145.01;100.00;64805.59;5054230;28;20466;-55
2022/09/23 07:16:38;;;;;;;13.32;6.53;;;;;;;-145.01;100.00;64805.59;5058918;28;20483;-55
2022/09/23 07:19:03;;;;;;;9.77;6.90;;;;;;;-145.01;100.00;64805.59;5051772;28;20062;-54
2022/09/23 07:21:29;;;;;;;9.30;6.53;;;;;;;-145.01;100.00;64805.59;5054487;28;20037;-56
2022/09/23 07:23:56;;;;;;;12.10;6.18;;;;;;;-145.01;100.00;64805.59;5051055;28;20055;-56
2022/09/23 07:26:22;;;;;;;17.00;6.65;;;;;;;-145.01;100.00;64805.59;5059061;28;20040;-55
2022/09/23 07:28:55;;;;;;;12.63;6.28;;;;;;;-145.01;100.00;64805.59;5052995;28;20025;-56
2022/09/23 07:31:21;;;;;;;12.10;5.80;;;;;;;-145.01;100.00;64805.59;5065153;28;20029;-55
2022/09/23 07:33:54;;;;;;;9.90;5.93;;;;;;;-145.01;100.00;64805.59;5052149;28;20375;-56
2022/09/23 07:36:20;;;;;;;13.30;6.18;;;;;;;-145.01;100.00;64805.59;5064795;28;20514;-56
2022/09/23 07:38:46;;;;;;;10.93;6.45;;;;;;;-145.01;100.00;64805.59;5059756;28;20028;-56
2022/09/23 07:41:16;;;;;;;9.85;5.97;;;;;;;-145.01;100.00;64805.59;5068020;28;20445;-56
2022/09/23 07:43:42;;;;;;;12.63;5.47;;;;;;;-145.01;100.00;64805.59;5057296;28;20021;-56
2022/09/23 07:46:16;;;;;;;10.63;6.20;;;;;;;-145.01;100.00;64805.59;5057339;28;20017;-56
2022/09/23 07:48:41;;;;;;;15.98;6.55;;;;;;;-145.01;100.00;64805.59;5054278;28;20028;-56
2022/09/23 07:51:09;;;;;;;11.13;6.00;;;;;;;-145.01;100.00;64805.59;5057461;28;20021;-55
2022/09/23 07:53:34;;;;;;;14.60;6.30;;;;;;;-145.01;100.00;64805.59;5057859;28;20028;-56
2022/09/23 07:56:00;;;;;;;12.27;6.32;;;;;;;-145.01;100.00;64805.59;5054541;28;20070;-54
2022/09/23 07:58:25;;;;;;;11.13;6.25;;;;;;;-145.01;100.00;64805.59;5052816;28;20112;-55
2022/09/23 08:00:52;;;;;;;13.07;5.93;;;;;;;-145.01;100.00;64805.59;5055893;28;20039;-55
2022/09/23 08:03:17;;;;;;;11.02;6.30;;;;;;;-145.01;100.00;64805.59;5060733;28;20040;-55
2022/09/23 08:05:43;;;;;;;9.23;5.70;;;;;;;-145.01;100.00;64805.59;5065310;28;20106;-54
2022/09/23 08:08:09;;;;;;;11.82;6.18;;;;;;;-145.01;100.00;64805.59;5058101;28;20033;-55
2022/09/23 08:10:34;;;;;;;8.77;5.68;;;;;;;-145.01;100.00;64805.59;5053804;28;20029;-55
2022/09/23 08:13:02;;;;;;;10.18;5.80;;;;;;;-145.01;100.00;64805.59;5062424;28;20399;-56
2022/09/23 08:15:28;;;;;;;11.65;6.30;;;;;;;-145.01;100.00;64805.59;5053917;28;20033;-55
2022/09/23 08:17:56;;;;;;;10.15;6.28;;;;;;;-145.01;100.00;64805.59;5051637;28;20029;-55
2022/09/23 08:23:06;;;;;;;9.68;6.03;;;;;;;-145.01;100.00;64805.59;5063801;28;20035;-54
2022/09/23 08:25:31;;;;;;;11.73;5.65;;;;;;;-145.01;100.00;64805.59;5051515;28;20033;-53
2022/09/23 08:27:57;;;;;;;10.27;5.68;;;;;;;-145.01;100.00;64805.59;5087080;28;20029;-54
2022/09/23 08:30:22;;;;;;;9.60;5.95;;;;;;;-145.01;100.00;64805.59;5059403;28;20039;-54
2022/09/23 08:32:51;;;;;;;12.32;6.05;;;;;;;-145.01;100.00;64805.59;5056570;28;20031;-54
2022/09/23 08:35:16;;;;;;;7.45;5.25;;;;;;;-145.01;100.00;64805.59;5058260;28;20466;-53
2022/09/23 08:37:42;;;;;;;9.25;5.78;;;;;;;-145.01;100.00;64805.59;5051347;28;20029;-54
2022/09/23 08:40:08;;;;;;;7.65;5.85;;;;;;;-145.01;100.00;64805.59;5051673;28;20025;-54
2022/09/23 08:42:40;;;;;;;10.85;6.00;;;;;;;-145.01;100.00;64805.59;5061012;28;20213;-53
2022/09/23 08:45:07;;;;;;;10.82;5.97;;;;;;;-145.01;100.00;64805.59;5054829;28;20045;-53
2022/09/23 08:47:43;;;;;;;15.45;6.05;;;;;;;-145.01;100.00;64805.59;5051716;28;20033;-53
2022/09/23 08:50:14;;;;;;;10.15;5.80;;;;;;;-145.01;100.00;64805.59;5055925;28;20044;-54
2022/09/23 08:52:49;;;;;;;11.55;5.40;;;;;;;-145.01;100.00;64805.59;5037358;28;20047;-54
2022/09/23 08:55:14;;;;;;;12.30;5.03;;;;;;;-145.01;100.00;64805.59;5050178;28;20025;-54
2022/09/23 08:58:25;;;;;;;8.30;5.55;;;;;;;-145.01;100.00;64805.59;5088872;28;20071;-54
2022/09/23 09:01:12;;;;;;;8.65;5.15;;;;;;;-145.01;100.00;64805.59;5035669;28;20048;-52
2022/09/23 09:04:27;;;;;;;8.98;5.20;;;;;;;-145.01;100.00;64805.59;5054565;28;20029;-52
2022/09/23 09:07:08;;;;;;;7.57;5.10;;;;;;;-145.01;100.00;64805.59;5040279;28;20437;-53
2022/09/23 09:09:46;;;;;;;9.98;5.75;;;;;;;-145.01;100.00;64805.59;5052932;28;20030;-54
2022/09/23 09:12:31;;;;;;;8.90;5.72;;;;;;;-145.01;100.00;64805.59;5056333;28;20547;-55
2022/09/23 09:14:58;;;;;;;13.32;6.00;;;;;;;-145.01;100.00;64805.59;5056689;28;20037;-55
2022/09/23 09:17:39;;;;;;;10.13;4.63;;;;;;;-145.01;100.00;64805.59;5051336;28;20029;-55
2022/09/23 09:20:16;;;;;;;6.90;4.10;;;;;;;-145.01;100.00;64805.59;5056198;28;20029;-55
2022/09/23 09:22:59;;;;;;;8.27;3.80;;;;;;;-145.01;100.00;64805.59;5054617;28;20076;-53
2022/09/23 09:25:44;;;;;;;6.28;3.40;;;;;;;-145.01;100.00;64805.59;5055799;28;20029;-52
2022/09/23 09:28:29;;;;;;;6.25;4.05;;;;;;;-145.01;100.00;64805.59;5059493;28;20059;-53
2022/09/23 09:30:56;;;;;;;6.63;3.95;;;;;;;-145.01;100.00;64805.59;5054618;28;20035;-55
2022/09/23 09:33:37;;;;;;;5.38;3.53;;;;;;;-145.01;100.00;64805.59;5052730;28;20079;-55
2022/09/23 09:36:07;;;;;;;6.10;3.70;;;;;;;-145.01;100.00;64805.59;5035622;28;20032;-55
2022/09/23 09:38:34;;;;;;;5.07;3.70;;;;;;;-145.01;100.00;64805.59;5050884;28;20035;-55
2022/09/23 09:41:04;;;;;;;5.13;3.50;;;;;;;-145.01;100.00;64805.59;5055106;28;20029;-55
2022/09/23 09:43:29;;;;;;;5.47;3.58;;;;;;;-145.01;100.00;64805.59;5038720;28;20020;-55
2022/09/23 09:46:14;;;;;;;6.35;3.58;;;;;;;-145.01;100.00;64805.59;5050516;28;20506;-55
2022/09/23 09:48:56;;;;;;;5.07;3.20;;;;;;;-145.01;100.00;64805.59;5049441;28;20490;-54
2022/09/23 09:51:22;;;;;;;7.40;3.60;;;;;;;-145.01;100.00;64805.59;5043070;28;20375;-54
2022/09/23 09:53:50;;;;;;;6.13;3.35;;;;;;;-145.01;100.00;64805.59;5053935;28;20071;-55
2022/09/23 09:56:16;;;;;;;10.25;3.70;;;;;;;-145.01;100.00;64805.59;5056702;28;20072;-54
2022/09/23 09:58:51;;;;;;;5.60;3.80;;;;;;;-145.01;100.00;64805.59;5071752;28;20061;-55
2022/09/23 10:01:23;;;;;;;5.53;3.65;;;;;;;-145.01;100.00;64805.59;5050082;28;20432;-55
2022/09/23 10:03:50;;;;;;;7.18;3.72;;;;;;;-145.01;100.00;64805.59;5057448;28;20027;-53
2022/09/23 10:06:26;;;;;;;5.30;3.20;;;;;;;-145.01;100.00;64805.59;5051864;28;20053;-54
2022/09/23 10:09:07;;;;;;;6.53;4.10;;;;;;;-145.01;100.00;64805.59;5054600;28;20029;-52
2022/09/23 10:11:33;;;;;;;5.43;3.42;;;;;;;-145.01;100.00;64805.59;5023725;28;20016;-55
2022/09/23 10:13:59;;;;;;;4.85;3.13;;;;;;;-145.01;100.00;64805.59;5054548;28;20089;-53
2022/09/23 10:16:24;;;;;;;4.22;3.22;;;;;;;-145.01;100.00;64805.59;5053168;28;20466;-54
2022/09/23 10:18:52;;;;;;;6.65;3.40;;;;;;;-145.01;100.00;64805.59;5050300;28;20230;-52
2022/09/23 10:21:20;;;;;;;6.03;3.53;;;;;;;-145.01;100.00;64805.59;5054569;28;20028;-55
2022/09/23 10:23:56;;;;;;;16.30;4.65;;;;;;;-145.01;100.00;64805.59;5032054;28;20029;-54
2022/09/23 10:26:29;;;;;;;7.38;3.55;;;;;;;-145.01;100.00;64805.59;5064633;28;20025;-54
2022/09/23 10:28:57;;;;;;;6.18;3.65;;;;;;;-145.01;100.00;64805.59;5056638;28;20171;-55
2022/09/23 10:31:31;;;;;;;7.53;3.70;;;;;;;-145.01;100.00;64805.59;5054683;28;20063;-55
2022/09/23 10:34:22;;;;;;;10.07;3.92;;;;;;;-145.01;100.00;64805.59;5052940;28;20033;-54
2022/09/23 10:37:34;;;;;;;7.55;3.55;;;;;;;-145.01;100.00;64805.59;5058047;28;20079;-54
2022/09/23 10:48:59;;;;;;;5.10;3.13;;;;;;;-145.01;100.00;64805.59;5055364;28;20036;-54
2022/09/23 10:51:30;;;;;;;7.93;3.33;;;;;;;-145.01;100.00;64805.59;5056968;28;20041;-55
2022/09/23 10:54:22;;;;;;;8.57;3.25;;;;;;;-145.01;100.00;64805.59;5041912;28;20040;-53
2022/09/23 10:56:51;;;;;;;5.07;3.10;;;;;;;-145.01;100.00;64805.59;5049755;28;20084;-55
2022/09/23 10:59:28;;;;;;;4.75;2.80;;;;;;;-145.01;100.00;64805.59;5064657;28;20029;-54
2022/09/23 11:02:25;;;;;;;4.68;2.80;;;;;;;-145.01;100.00;64805.59;5048832;28;20052;-54
2022/09/23 11:05:19;;;;;;;4.90;2.97;;;;;;;-145.01;100.00;64805.59;5038923;28;20076;-55
2022/09/23 11:07:58;;;;;;;5.28;3.20;;;;;;;-145.01;100.00;64805.59;5053507;28;20119;-55
2022/09/23 11:10:48;;;;;;;7.28;3.08;;;;;;;-145.01;100.00;64805.59;5055418;28;20033;-55
2022/09/23 11:13:20;;;;;;;7.15;2.50;;;;;;;-145.01;100.00;64805.59;5050642;28;20567;-54
2022/09/23 11:16:19;;;;;;;4.57;2.70;;;;;;;-145.01;100.00;64805.59;5052195;28;20394;-55
2022/09/23 11:19:08;;;;;;;5.57;3.00;;;;;;;-145.01;100.00;64805.59;5048788;28;20343;-54
2022/09/23 11:21:49;;;;;;;4.75;2.80;;;;;;;-145.01;100.00;64805.59;5058295;28;20043;-53
2022/09/23 11:24:26;;;;;;;4.80;2.90;;;;;;;-145.01;100.00;64805.59;5052873;28;20439;-52
2022/09/23 11:27:07;;;;;;;4.70;2.80;;;;;;;-145.01;100.00;64805.59;5051078;28;20203;-56
2022/09/23 11:30:00;;;;;;;7.07;2.60;;;;;;;-145.01;100.00;64805.59;5051869;28;20028;-54
2022/09/23 11:32:38;;;;;;;3.50;2.40;;;;;;;-145.01;100.00;64805.59;5055435;28;20133;-55
2022/09/23 11:35:26;;;;;;;3.92;2.20;;;;;;;-145.01;100.00;64805.59;5054757;28;20558;-54